Meteorological Aerodrome Report (METAR)

METAR

Data at: 0335 UTC 10 Apr 2020

METAR for:NVSC (Sola/Vanua Lava Arpt, --, NV)
Text:NVSC 100300Z 28006KT 9999 SCT020 BKN040 30/25 Q1011
Temperature: 30.0°C ( 86°F)
Dewpoint: 25.0°C ( 77°F) [RH = 75%]
Pressure (altimeter):29.85 inches Hg (1011.0 mb)
Winds:from the W (280 degrees) at 7 MPH (6 knots; 3.1 m/s)
Visibility:6 or more sm (10+ km)
Ceiling:4000 feet AGL
Clouds: scattered clouds at 2000 feet AGL, broken clouds at 4000 feet AGL

METAR

Data at: 0335 UTC 10 Apr 2020

METAR for:NVSG (Longana Arpt, --, NV)
Text:No data found

METAR

Data at: 0335 UTC 10 Apr 2020

METAR for:NVSS (Santo/Pekoa Intl, --, NV)
Text:NVSS 100300Z 12008KT 9999 SCT020 29/22 Q1011
Temperature: 29.0°C ( 84°F)
Dewpoint: 22.0°C ( 72°F) [RH = 66%]
Pressure (altimeter):29.85 inches Hg (1011.0 mb)
Winds:from the ESE (120 degrees) at 9 MPH (8 knots; 4.1 m/s)
Visibility:6 or more sm (10+ km)
Ceiling:at least 12,000 feet AGL
Clouds: scattered clouds at 2000 feet AGL

METAR

Data at: 0335 UTC 10 Apr 2020

METAR for:NVSL (Malekula/Lamap, --, NV)
Text:No data found

METAR

Data at: 0335 UTC 10 Apr 2020

METAR for:NVSP (Norsup Arpt, --, NV)
Text:No data found

METAR

Data at: 0335 UTC 10 Apr 2020

METAR for:NVVV (Efate/Bauerfield Int, --, NV)
Text:NVVV 100300Z 15013KT 9999 SCT020 28/20 Q1013
Temperature: 28.0°C ( 82°F)
Dewpoint: 20.0°C ( 68°F) [RH = 62%]
Pressure (altimeter):29.91 inches Hg (1013.0 mb)
Winds:from the SSE (150 degrees) at 15 MPH (13 knots; 6.7 m/s)
Visibility:6 or more sm (10+ km)
Ceiling:at least 12,000 feet AGL
Clouds: scattered clouds at 2000 feet AGL

METAR

Data at: 0335 UTC 10 Apr 2020

METAR for:NVVW (Tanna Arpt, --, NV)
Text:NVVW 100300Z 17010KT 9999 FEW025 28/20 Q1013
Temperature: 28.0°C ( 82°F)
Dewpoint: 20.0°C ( 68°F) [RH = 62%]
Pressure (altimeter):29.91 inches Hg (1013.0 mb)
Winds:from the S (170 degrees) at 12 MPH (10 knots; 5.1 m/s)
Visibility:6 or more sm (10+ km)
Ceiling:at least 12,000 feet AGL
Clouds: few clouds at 2500 feet AGL

METAR

Data at: 0335 UTC 10 Apr 2020

METAR for:NVVA (Aneityum/Mystery Isl, --, NV)
Text:NVVA 100300Z 13004KT 9999 SCT020 BKN038 26/23 Q1013 RMKS RERA
Temperature: 26.0°C ( 79°F)
Dewpoint: 23.0°C ( 73°F) [RH = 84%]
Pressure (altimeter):29.91 inches Hg (1013.0 mb)
Winds:from the SE (130 degrees) at 5 MPH (4 knots; 2.1 m/s)
Visibility:6 or more sm (10+ km)
Ceiling:3800 feet AGL
Clouds: scattered clouds at 2000 feet AGL, broken clouds at 3800 feet AGL

METAR

Data at: 0335 UTC 10 Apr 2020

NVVV 100300Z 15013KT 9999 SCT020 28/20 Q1013
NVSC 100300Z 28006KT 9999 SCT020 BKN040 30/25 Q1011
No Data available for NVSG
NVSS 100300Z 12008KT 9999 SCT020 29/22 Q1011
No Data available for NVSL
No Data available for NVSP
NVVW 100300Z 17010KT 9999 FEW025 28/20 Q1013
NVVA 100300Z 13004KT 9999 SCT020 BKN038 26/23 Q1013 RMKS RERA